Time;durP1;ratioP1;P1;durP2;ratioP2;P2;SDS_P1;SDS_P2;PMS_P1;PMS_P2;Temp;Humidity;BMP_temperature;BMP_pressure;BME280_temperature;BME280_humidity;BME280_pressure;Samples;Min_cycle;Max_cycle;Signal;HPM_P1;HPM_P2
2023/04/29 00:01:06;;;;;;;72.50;42.20;;;13.40;99.90;;;;;;5132675;27;20054;-71
2023/04/29 00:03:32;;;;;;;74.60;42.53;;;13.40;99.90;;;;;;5132864;27;20471;-71
2023/04/29 00:05:59;;;;;;;78.47;42.17;;;13.50;99.90;;;;;;5133148;27;20088;-72
2023/04/29 00:08:25;;;;;;;70.50;39.85;;;13.40;99.90;;;;;;5132653;27;20019;-71
2023/04/29 00:10:50;;;;;;;71.70;40.58;;;13.40;99.90;;;;;;5131363;27;20038;-71
2023/04/29 00:13:16;;;;;;;66.10;37.40;;;13.40;99.90;;;;;;5132075;28;20386;-72
2023/04/29 00:15:42;;;;;;;72.30;44.25;;;13.40;99.90;;;;;;5132278;27;20027;-71
2023/04/29 00:18:09;;;;;;;75.38;43.30;;;13.40;99.90;;;;;;5132105;27;20019;-71
2023/04/29 00:20:36;;;;;;;82.13;43.80;;;13.40;99.90;;;;;;5131398;27;20037;-72
2023/04/29 00:23:02;;;;;;;70.03;39.85;;;13.40;99.90;;;;;;5132719;27;20050;-72
2023/04/29 00:25:29;;;;;;;76.75;43.38;;;13.40;99.90;;;;;;5131040;28;20453;-71
2023/04/29 00:27:58;;;;;;;84.65;45.38;;;13.30;99.90;;;;;;5134787;27;20031;-72
2023/04/29 00:30:24;;;;;;;76.03;43.35;;;13.20;99.90;;;;;;5134715;27;20031;-71
2023/04/29 00:32:50;;;;;;;78.65;44.15;;;13.30;99.90;;;;;;5134885;27;20391;-72
2023/04/29 00:35:15;;;;;;;84.95;46.47;;;13.30;99.90;;;;;;5136798;27;20030;-72
2023/04/29 00:37:42;;;;;;;84.90;48.95;;;13.30;99.90;;;;;;5135540;27;20023;-71
2023/04/29 00:40:08;;;;;;;89.05;48.63;;;13.20;99.90;;;;;;5133683;27;20078;-71
2023/04/29 00:42:34;;;;;;;90.45;50.50;;;13.00;99.90;;;;;;5135896;27;20084;-72
2023/04/29 00:45:01;;;;;;;81.60;46.15;;;13.10;99.90;;;;;;5135509;27;20095;-71
2023/04/29 00:47:26;;;;;;;94.20;54.30;;;13.10;99.90;;;;;;5133995;27;20038;-72
2023/04/29 00:49:52;;;;;;;98.25;54.15;;;13.10;99.90;;;;;;5133794;27;20448;-72
2023/04/29 00:52:18;;;;;;;89.75;52.22;;;13.10;99.90;;;;;;5134502;27;20460;-72
2023/04/29 00:54:45;;;;;;;102.22;55.42;;;13.00;99.90;;;;;;5134727;27;20098;-72
2023/04/29 00:57:11;;;;;;;100.93;54.78;;;13.00;99.90;;;;;;5135485;27;20076;-72
2023/04/29 00:59:37;;;;;;;106.53;59.33;;;13.10;99.90;;;;;;5133908;27;20110;-72
2023/04/29 01:02:03;;;;;;;98.25;54.10;;;13.20;99.90;;;;;;5133593;27;20062;-72
2023/04/29 01:04:30;;;;;;;88.20;53.78;;;13.10;99.90;;;;;;5135347;27;20025;-72
2023/04/29 01:07:15;;;;;;;89.40;49.45;;;13.10;99.90;;;;;;5134877;27;20399;-72
2023/04/29 01:10:09;;;;;;;86.28;47.50;;;13.10;99.90;;;;;;5134981;27;20075;-72
2023/04/29 01:12:35;;;;;;;95.80;52.03;;;13.10;99.90;;;;;;5134026;27;20066;-71
2023/04/29 01:15:16;;;;;;;101.15;55.70;;;13.10;99.90;;;;;;5132396;27;20066;-72
2023/04/29 01:17:54;;;;;;;95.90;51.47;;;13.10;99.90;;;;;;5133962;27;20106;-72
2023/04/29 01:20:22;;;;;;;88.43;51.55;;;13.10;99.90;;;;;;5134727;27;20074;-71
2023/04/29 01:22:48;;;;;;;94.70;54.08;;;13.10;99.90;;;;;;5134284;27;20111;-72
2023/04/29 01:25:13;;;;;;;97.55;52.03;;;13.10;99.90;;;;;;5134962;27;20062;-72
2023/04/29 01:27:58;;;;;;;88.90;50.42;;;13.10;99.90;;;;;;5135756;27;20023;-72
2023/04/29 01:30:46;;;;;;;86.25;50.33;;;13.10;99.90;;;;;;5133897;27;20091;-72
2023/04/29 01:33:33;;;;;;;86.00;50.00;;;13.10;99.90;;;;;;5134814;27;20011;-72
2023/04/29 01:36:16;;;;;;;93.05;52.83;;;13.10;99.90;;;;;;5134981;27;20027;-72
2023/04/29 01:38:54;;;;;;;86.78;50.70;;;13.10;99.90;;;;;;5134102;27;20483;-72
2023/04/29 01:41:44;;;;;;;87.20;50.10;;;13.20;99.90;;;;;;5134356;27;20039;-72
2023/04/29 01:44:17;;;;;;;86.63;50.47;;;13.20;99.90;;;;;;5126095;27;20112;-72
2023/04/29 01:46:49;;;;;;;76.03;45.33;;;13.10;99.90;;;;;;5134556;27;20409;-71
2023/04/29 01:49:18;;;;;;;76.95;44.03;;;13.10;99.90;;;;;;5133068;27;20422;-72
2023/04/29 01:51:44;;;;;;;75.18;45.28;;;13.00;99.90;;;;;;5133271;27;20045;-71
2023/04/29 01:54:10;;;;;;;71.88;42.97;;;13.10;99.90;;;;;;5134987;27;20455;-72
2023/04/29 01:56:35;;;;;;;74.70;42.20;;;13.20;99.90;;;;;;5131740;27;20650;-72
2023/04/29 01:59:01;;;;;;;75.43;43.97;;;12.90;99.90;;;;;;5130939;27;20042;-71
2023/04/29 02:01:27;;;;;;;79.32;43.22;;;12.90;99.90;;;;;;5131882;27;20031;-72
2023/04/29 02:03:52;;;;;;;80.93;46.03;;;12.90;99.90;;;;;;5135013;27;20072;-72
2023/04/29 02:06:18;;;;;;;72.57;43.03;;;12.90;99.90;;;;;;5133972;27;20378;-71
2023/04/29 02:08:44;;;;;;;78.38;47.75;;;12.90;99.90;;;;;;5133766;27;20027;-71
2023/04/29 02:11:10;;;;;;;78.60;47.70;;;13.00;99.90;;;;;;5133379;27;20023;-71
2023/04/29 02:13:35;;;;;;;73.57;43.03;;;13.10;99.90;;;;;;5133552;27;20046;-71
2023/04/29 02:16:09;;;;;;;75.57;45.70;;;13.00;99.90;;;;;;5134436;27;20639;-71
2023/04/29 02:18:35;;;;;;;66.28;39.72;;;13.00;99.90;;;;;;5134840;27;20026;-71
2023/04/29 02:21:01;;;;;;;63.17;38.00;;;12.90;99.90;;;;;;5133426;27;20060;-72
2023/04/29 02:23:27;;;;;;;56.00;35.22;;;12.90;99.90;;;;;;5134411;27;20403;-72
2023/04/29 02:25:53;;;;;;;59.05;35.45;;;12.90;99.90;;;;;;5133668;27;20047;-71
2023/04/29 02:28:18;;;;;;;57.40;34.40;;;12.90;99.90;;;;;;5133099;27;20031;-71
2023/04/29 02:30:44;;;;;;;54.88;35.20;;;12.90;99.90;;;;;;5133572;27;20031;-72
2023/04/29 02:33:10;;;;;;;57.40;35.33;;;12.90;99.90;;;;;;5134294;27;20489;-72
2023/04/29 02:35:36;;;;;;;56.25;35.75;;;12.90;99.90;;;;;;5134043;27;20425;-71
2023/04/29 02:38:01;;;;;;;60.67;34.72;;;12.90;99.90;;;;;;5133487;27;20023;-71
2023/04/29 02:40:27;;;;;;;60.08;33.42;;;12.90;99.90;;;;;;5134333;27;20084;-72
2023/04/29 02:42:53;;;;;;;56.97;33.00;;;12.80;99.90;;;;;;5133927;27;20034;-72
2023/04/29 02:45:19;;;;;;;57.05;32.67;;;12.80;99.90;;;;;;5133717;27;20023;-71
2023/04/29 02:47:44;;;;;;;53.03;31.40;;;12.90;99.90;;;;;;5133303;27;20020;-72
2023/04/29 02:50:10;;;;;;;54.60;32.13;;;12.90;99.90;;;;;;5133765;27;20441;-71
2023/04/29 02:52:36;;;;;;;56.33;33.63;;;13.00;99.90;;;;;;5132623;27;20391;-71
2023/04/29 02:55:02;;;;;;;58.60;34.38;;;12.90;99.90;;;;;;5133353;27;20019;-72
2023/04/29 02:57:28;;;;;;;61.45;32.35;;;12.90;99.90;;;;;;5133760;27;20023;-72
2023/04/29 02:59:54;;;;;;;59.60;33.17;;;12.80;99.90;;;;;;5132191;27;20023;-72
2023/04/29 03:02:20;;;;;;;59.88;34.38;;;12.80;99.90;;;;;;5133595;27;20524;-71
2023/04/29 03:04:45;;;;;;;65.53;34.63;;;12.90;99.90;;;;;;5133645;27;20035;-70
2023/04/29 03:07:11;;;;;;;62.10;35.38;;;12.90;99.90;;;;;;5132233;27;20535;-70
2023/04/29 03:09:37;;;;;;;67.28;37.20;;;12.80;99.90;;;;;;5133451;27;20099;-71
2023/04/29 03:12:03;;;;;;;70.32;37.38;;;12.70;99.90;;;;;;5132807;27;20035;-71
2023/04/29 03:14:28;;;;;;;68.38;36.70;;;12.70;99.90;;;;;;5131898;27;20510;-71
2023/04/29 03:16:55;;;;;;;69.13;37.58;;;12.80;99.90;;;;;;5133451;27;20163;-71
2023/04/29 03:19:21;;;;;;;68.72;36.97;;;12.70;99.90;;;;;;5132414;27;20020;-71
2023/04/29 03:21:46;;;;;;;72.60;40.08;;;12.80;99.90;;;;;;5132840;27;20031;-71
2023/04/29 03:24:13;;;;;;;82.53;41.42;;;12.70;99.90;;;;;;5133050;27;20094;-71
2023/04/29 03:26:39;;;;;;;78.07;39.33;;;12.80;99.90;;;;;;5133294;27;20027;-70
2023/04/29 03:29:05;;;;;;;76.05;40.38;;;12.80;99.90;;;;;;5131413;27;20538;-71
2023/04/29 03:31:30;;;;;;;80.40;42.75;;;12.80;99.90;;;;;;5133066;27;20027;-71
2023/04/29 03:33:56;;;;;;;85.78;44.05;;;12.80;99.90;;;;;;5133356;28;20027;-70
2023/04/29 03:36:22;;;;;;;85.03;43.33;;;12.90;99.90;;;;;;5131414;28;20027;-71
2023/04/29 03:38:47;;;;;;;84.07;43.67;;;12.90;99.90;;;;;;5131919;28;20390;-70
2023/04/29 03:41:13;;;;;;;85.88;43.92;;;12.80;99.90;;;;;;5131200;28;20047;-70
2023/04/29 03:43:39;;;;;;;88.60;43.40;;;12.90;99.90;;;;;;5131838;28;20019;-71
2023/04/29 03:46:05;;;;;;;81.57;42.97;;;12.80;99.90;;;;;;5133403;27;20516;-71
2023/04/29 03:48:31;;;;;;;83.60;46.55;;;12.90;99.90;;;;;;5132174;28;20027;-70
2023/04/29 03:50:57;;;;;;;95.50;47.40;;;12.90;99.90;;;;;;5132623;27;20021;-71
2023/04/29 03:53:25;;;;;;;92.65;45.70;;;12.90;99.90;;;;;;5133134;28;20019;-71
2023/04/29 03:55:50;;;;;;;86.38;45.50;;;12.90;99.90;;;;;;5131709;28;20027;-70
2023/04/29 03:58:16;;;;;;;80.72;42.85;;;12.90;99.90;;;;;;5133169;28;20391;-70
2023/04/29 04:00:42;;;;;;;81.00;41.90;;;12.90;99.90;;;;;;5129273;28;20037;-70
2023/04/29 04:03:07;;;;;;;81.95;44.05;;;12.90;99.90;;;;;;5134019;27;20471;-70
2023/04/29 04:05:33;;;;;;;73.05;40.17;;;12.90;99.90;;;;;;5130263;27;20023;-71
2023/04/29 04:07:59;;;;;;;77.43;40.47;;;12.80;99.90;;;;;;5115499;28;20023;-72
2023/04/29 04:10:25;;;;;;;73.50;39.58;;;12.70;99.90;;;;;;5115707;28;20032;-71
2023/04/29 04:12:51;;;;;;;73.68;38.95;;;12.70;99.90;;;;;;5119962;27;20387;-71
2023/04/29 04:15:16;;;;;;;67.00;39.10;;;12.70;99.90;;;;;;5136892;27;20383;-71
2023/04/29 04:17:42;;;;;;;65.63;35.92;;;12.70;99.90;;;;;;5136714;27;20037;-71
2023/04/29 04:20:08;;;;;;;68.35;37.95;;;12.70;99.90;;;;;;5134000;27;20024;-71
2023/04/29 04:22:34;;;;;;;71.53;39.90;;;12.70;99.90;;;;;;5136684;27;20023;-72
2023/04/29 04:25:00;;;;;;;70.35;37.60;;;12.70;99.90;;;;;;5136356;27;20027;-71
2023/04/29 04:27:25;;;;;;;72.93;37.22;;;12.70;99.90;;;;;;5135815;27;20088;-71
2023/04/29 04:29:54;;;;;;;67.25;36.65;;;12.70;99.90;;;;;;5136731;27;20030;-71
2023/04/29 04:32:22;;;;;;;61.88;36.17;;;12.70;99.90;;;;;;5135414;27;20027;-71
2023/04/29 04:34:48;;;;;;;70.95;37.40;;;12.70;99.90;;;;;;5135598;27;20023;-71
2023/04/29 04:37:15;;;;;;;71.82;38.22;;;12.60;99.90;;;;;;5135263;27;20023;-72
2023/04/29 04:39:40;;;;;;;65.88;38.63;;;12.60;99.90;;;;;;5135751;27;20031;-71
2023/04/29 04:42:06;;;;;;;76.70;36.35;;;12.60;99.90;;;;;;5136362;27;20072;-72
2023/04/29 04:44:32;;;;;;;67.70;36.65;;;12.70;99.90;;;;;;5135149;27;20401;-71
2023/04/29 04:47:00;;;;;;;69.07;36.28;;;12.60;99.90;;;;;;5136468;27;20019;-71
2023/04/29 04:49:26;;;;;;;69.50;36.22;;;12.60;99.90;;;;;;5135900;27;20076;-71
2023/04/29 04:51:52;;;;;;;68.43;38.78;;;12.60;99.90;;;;;;5136400;27;20144;-71
2023/04/29 04:54:18;;;;;;;65.88;35.30;;;12.70;99.90;;;;;;5134996;27;20019;-71
2023/04/29 04:56:43;;;;;;;64.57;35.72;;;12.70;99.90;;;;;;5134854;27;20042;-71
2023/04/29 04:59:09;;;;;;;62.08;34.70;;;12.70;99.90;;;;;;5134733;27;20467;-71
2023/04/29 05:01:35;;;;;;;70.22;35.88;;;12.70;99.90;;;;;;5135335;27;20398;-71
2023/04/29 05:04:02;;;;;;;74.35;34.85;;;12.70;99.90;;;;;;5135874;27;20019;-71
2023/04/29 05:06:28;;;;;;;72.20;38.10;;;12.70;99.90;;;;;;5134323;27;20416;-71
2023/04/29 05:08:53;;;;;;;77.18;39.90;;;12.80;99.90;;;;;;5135850;27;20103;-71
2023/04/29 05:11:22;;;;;;;71.25;38.95;;;12.80;99.90;;;;;;5136063;27;20061;-71
2023/04/29 05:13:48;;;;;;;70.35;37.63;;;12.70;99.90;;;;;;5132330;27;20495;-71
2023/04/29 05:16:16;;;;;;;64.88;37.05;;;12.70;99.90;;;;;;5135581;27;20030;-71
2023/04/29 05:18:44;;;;;;;71.72;38.47;;;12.70;99.90;;;;;;5135815;27;20019;-71
2023/04/29 05:21:09;;;;;;;72.80;36.58;;;12.70;99.90;;;;;;5133244;27;20030;-72
2023/04/29 05:23:35;;;;;;;71.80;38.75;;;12.70;99.90;;;;;;5134143;27;20019;-72
2023/04/29 05:26:01;;;;;;;74.55;37.33;;;12.70;99.90;;;;;;5135155;27;20038;-72
2023/04/29 05:28:26;;;;;;;72.55;39.88;;;12.70;99.90;;;;;;5135024;27;20015;-72
2023/04/29 05:30:52;;;;;;;70.03;37.05;;;12.70;99.90;;;;;;5135443;27;20023;-71
2023/04/29 05:33:19;;;;;;;73.05;37.17;;;12.80;99.90;;;;;;5134641;27;20015;-72
2023/04/29 05:35:45;;;;;;;73.72;36.67;;;12.80;99.90;;;;;;5135073;27;20029;-72
2023/04/29 05:38:11;;;;;;;72.10;40.05;;;12.70;99.90;;;;;;5132871;27;20019;-71
2023/04/29 05:40:37;;;;;;;71.47;37.38;;;12.80;99.90;;;;;;5135025;27;20552;-71
2023/04/29 05:43:02;;;;;;;69.53;37.33;;;12.70;99.90;;;;;;5135584;27;20026;-71
2023/04/29 05:45:28;;;;;;;64.00;36.13;;;12.70;99.90;;;;;;5135093;27;20026;-71
2023/04/29 05:47:54;;;;;;;64.00;33.92;;;12.80;99.90;;;;;;5134064;27;20537;-71
2023/04/29 05:50:20;;;;;;;66.30;35.13;;;12.80;99.90;;;;;;5134031;27;20019;-71
2023/04/29 05:52:45;;;;;;;67.93;36.17;;;12.70;99.90;;;;;;5134743;27;20383;-72
2023/04/29 05:55:11;;;;;;;67.93;36.78;;;12.70;99.90;;;;;;5134877;27;20022;-71
2023/04/29 05:57:37;;;;;;;66.45;36.00;;;12.70;99.90;;;;;;5134010;27;20030;-71
2023/04/29 06:00:03;;;;;;;66.15;35.05;;;12.70;99.90;;;;;;5131753;27;20399;-70
2023/04/29 06:02:29;;;;;;;68.32;33.63;;;12.70;99.90;;;;;;5134632;27;20149;-71
2023/04/29 06:04:55;;;;;;;69.43;36.40;;;12.70;99.90;;;;;;5134038;27;20043;-71
2023/04/29 06:07:21;;;;;;;69.32;35.53;;;12.60;99.90;;;;;;5133999;27;20500;-71
2023/04/29 06:09:47;;;;;;;61.40;32.90;;;12.60;99.90;;;;;;5134780;27;20015;-71
2023/04/29 06:12:13;;;;;;;60.00;33.08;;;12.60;99.90;;;;;;5134339;27;20054;-71
2023/04/29 06:14:39;;;;;;;59.10;32.78;;;12.60;99.90;;;;;;5132216;27;20142;-71
2023/04/29 06:17:04;;;;;;;65.60;33.78;;;12.60;99.90;;;;;;5133569;27;20023;-71
2023/04/29 06:19:32;;;;;;;59.55;33.08;;;12.60;99.90;;;;;;5133775;27;20023;-71
2023/04/29 06:21:58;;;;;;;56.13;32.08;;;12.70;99.90;;;;;;5133598;27;20046;-71
2023/04/29 06:24:23;;;;;;;61.90;32.13;;;12.70;99.90;;;;;;5132577;27;20704;-71
2023/04/29 06:26:49;;;;;;;58.33;31.77;;;12.70;99.90;;;;;;5132338;27;20055;-71
2023/04/29 06:29:15;;;;;;;57.83;33.15;;;12.80;99.90;;;;;;5133657;27;20356;-71
2023/04/29 06:31:41;;;;;;;57.72;33.92;;;12.80;99.90;;;;;;5132843;27;20025;-71
2023/04/29 06:34:07;;;;;;;53.92;30.70;;;12.80;99.90;;;;;;5133819;27;20074;-72
2023/04/29 06:36:33;;;;;;;59.15;32.13;;;12.70;99.90;;;;;;5133158;27;20531;-72
2023/04/29 06:38:58;;;;;;;58.42;30.10;;;12.70;99.90;;;;;;5134595;27;20053;-72
2023/04/29 06:41:24;;;;;;;58.45;31.15;;;12.80;99.90;;;;;;5132109;27;20090;-71
2023/04/29 06:43:50;;;;;;;55.28;32.15;;;12.80;99.90;;;;;;5133890;27;20468;-72
2023/04/29 06:46:16;;;;;;;61.50;32.40;;;12.80;99.90;;;;;;5133674;27;20027;-72
2023/04/29 06:48:41;;;;;;;58.05;32.05;;;12.70;99.90;;;;;;5133716;27;20073;-72
2023/04/29 06:51:07;;;;;;;54.45;31.95;;;12.80;99.90;;;;;;5133959;27;20023;-72
2023/04/29 06:53:33;;;;;;;55.60;32.10;;;12.70;99.90;;;;;;5130788;27;20079;-71
2023/04/29 06:55:59;;;;;;;55.75;30.13;;;12.70;99.90;;;;;;5133237;27;20019;-71
2023/04/29 06:58:24;;;;;;;51.10;29.63;;;12.70;99.90;;;;;;5133347;27;20034;-72
2023/04/29 07:00:50;;;;;;;55.35;31.27;;;12.70;99.90;;;;;;5132188;27;20038;-72
2023/04/29 07:03:17;;;;;;;52.80;30.30;;;12.70;99.90;;;;;;5133556;27;20019;-71
2023/04/29 07:05:47;;;;;;;59.78;32.88;;;12.70;99.90;;;;;;5132913;27;20106;-71
2023/04/29 07:08:13;;;;;;;53.83;31.42;;;12.80;99.90;;;;;;5132730;27;20472;-72
2023/04/29 07:10:40;;;;;;;49.58;30.15;;;12.70;99.90;;;;;;5121752;27;20139;-71
2023/04/29 07:13:06;;;;;;;54.10;31.88;;;12.70;99.90;;;;;;5111862;28;20059;-71
2023/04/29 07:15:35;;;;;;;54.70;31.90;;;12.70;99.90;;;;;;5118171;27;20052;-72
2023/04/29 07:18:05;;;;;;;54.47;30.70;;;12.70;99.90;;;;;;5132390;27;20094;-72
2023/04/29 07:20:34;;;;;;;47.55;28.45;;;12.70;99.90;;;;;;5130226;27;20061;-70
2023/04/29 07:23:00;;;;;;;59.85;33.05;;;12.70;99.90;;;;;;5123460;27;20042;-71
2023/04/29 07:25:29;;;;;;;48.55;30.10;;;12.80;99.90;;;;;;5125183;27;20118;-71
2023/04/29 07:27:55;;;;;;;46.17;28.83;;;12.80;99.90;;;;;;5131605;27;20064;-72
2023/04/29 07:30:22;;;;;;;61.13;32.67;;;12.80;99.90;;;;;;5115671;27;20034;-72
2023/04/29 07:32:48;;;;;;;54.25;31.52;;;12.80;99.90;;;;;;5131864;27;20019;-70
2023/04/29 07:35:13;;;;;;;50.70;31.33;;;12.80;99.90;;;;;;5133614;27;20117;-71
2023/04/29 07:37:40;;;;;;;54.75;31.02;;;12.80;99.90;;;;;;5128509;27;20559;-72
2023/04/29 07:40:06;;;;;;;48.22;29.35;;;12.80;99.90;;;;;;5132157;27;20494;-71
2023/04/29 07:42:32;;;;;;;53.65;30.10;;;12.80;99.90;;;;;;5133110;27;20030;-71
2023/04/29 07:44:58;;;;;;;48.88;28.23;;;12.70;99.90;;;;;;5132509;28;20024;-70
2023/04/29 07:47:23;;;;;;;53.15;29.65;;;12.70;99.90;;;;;;5132763;28;20030;-69
2023/04/29 07:49:49;;;;;;;55.58;31.10;;;12.70;99.90;;;;;;5132254;28;20049;-69
2023/04/29 07:52:15;;;;;;;47.40;28.90;;;12.80;99.90;;;;;;5131651;28;20103;-70
2023/04/29 07:54:41;;;;;;;51.03;30.83;;;12.80;99.90;;;;;;5131712;27;20031;-72
2023/04/29 07:57:07;;;;;;;52.13;31.77;;;12.80;99.90;;;;;;5130334;28;20023;-70
2023/04/29 07:59:36;;;;;;;46.95;28.20;;;12.80;99.90;;;;;;5133099;28;20028;-70
2023/04/29 08:02:06;;;;;;;46.35;29.45;;;12.90;99.90;;;;;;5133839;27;20031;-70
2023/04/29 08:04:32;;;;;;;55.50;30.67;;;12.90;99.90;;;;;;5130707;28;20029;-70
2023/04/29 08:06:58;;;;;;;48.35;29.35;;;13.00;99.90;;;;;;5132060;28;20023;-70
2023/04/29 08:09:23;;;;;;;49.67;29.20;;;12.90;99.90;;;;;;5130991;28;20016;-70
2023/04/29 08:11:49;;;;;;;47.72;29.38;;;13.00;99.90;;;;;;5132048;27;20035;-70
2023/04/29 08:14:15;;;;;;;46.05;28.27;;;13.00;99.90;;;;;;5131664;27;20031;-69
2023/04/29 08:16:41;;;;;;;51.17;30.63;;;13.10;99.90;;;;;;5131002;27;20058;-69
2023/04/29 08:19:06;;;;;;;44.30;26.58;;;13.20;99.90;;;;;;5126728;28;20375;-69
2023/04/29 08:21:33;;;;;;;38.58;25.45;;;13.30;99.90;;;;;;5129503;28;20493;-69
2023/04/29 08:23:59;;;;;;;43.90;26.70;;;13.30;99.90;;;;;;5110508;28;20016;-69
2023/04/29 08:26:25;;;;;;;44.22;28.30;;;13.30;99.90;;;;;;5128842;28;20039;-70
2023/04/29 08:28:51;;;;;;;44.92;26.95;;;13.30;99.90;;;;;;5130829;28;20030;-69
2023/04/29 08:31:20;;;;;;;45.60;26.90;;;13.40;99.90;;;;;;5130271;27;20023;-70
2023/04/29 08:33:46;;;;;;;42.17;25.77;;;13.30;99.90;;;;;;5131281;27;20566;-69
2023/04/29 08:36:12;;;;;;;42.13;25.08;;;13.30;99.90;;;;;;5131645;27;20035;-70
2023/04/29 08:38:38;;;;;;;40.17;25.30;;;13.20;99.90;;;;;;5132580;27;20080;-69
2023/04/29 08:41:07;;;;;;;37.10;24.67;;;13.30;99.90;;;;;;5131420;27;20418;-70
2023/04/29 08:43:39;;;;;;;34.30;23.00;;;13.30;99.90;;;;;;5132943;27;20069;-69
2023/04/29 08:46:05;;;;;;;37.10;23.52;;;13.40;99.90;;;;;;5132199;27;20027;-70
2023/04/29 08:48:33;;;;;;;31.52;21.25;;;13.50;99.90;;;;;;5133742;27;20019;-69
2023/04/29 08:51:00;;;;;;;35.03;23.13;;;13.60;99.90;;;;;;5136300;27;20490;-71
2023/04/29 08:53:26;;;;;;;33.97;23.73;;;13.60;99.90;;;;;;5136366;27;20023;-71
2023/04/29 08:55:54;;;;;;;45.67;27.75;;;13.60;99.90;;;;;;5136200;27;20031;-69
2023/04/29 08:58:20;;;;;;;40.38;26.02;;;13.80;99.90;;;;;;5135075;27;20019;-70
2023/04/29 09:00:47;;;;;;;35.63;23.58;;;13.90;99.90;;;;;;5135931;27;20506;-72
2023/04/29 09:03:24;;;;;;;34.22;24.20;;;13.80;99.90;;;;;;5135356;27;20016;-70
2023/04/29 09:05:53;;;;;;;39.85;24.65;;;13.80;99.90;;;;;;5133319;27;20095;-71
2023/04/29 09:08:23;;;;;;;39.58;25.80;;;13.80;99.90;;;;;;5135427;27;20050;-71
2023/04/29 09:10:51;;;;;;;36.08;24.55;;;13.80;99.90;;;;;;5132584;27;20072;-69
2023/04/29 09:13:27;;;;;;;37.33;23.75;;;13.80;99.90;;;;;;5135097;27;20059;-69
2023/04/29 09:15:54;;;;;;;41.20;23.63;;;13.90;99.90;;;;;;5133652;27;20390;-71
2023/04/29 09:18:56;;;;;;;37.97;23.65;;;14.00;99.90;;;;;;5135481;27;20020;-71
2023/04/29 09:21:26;;;;;;;34.70;23.93;;;14.10;99.90;;;;;;5114491;28;20028;-71
2023/04/29 09:23:54;;;;;;;37.88;22.92;;;14.30;99.90;;;;;;5123347;27;20019;-70
2023/04/29 09:26:21;;;;;;;40.40;23.17;;;14.20;99.90;;;;;;5135722;27;20095;-70
2023/04/29 09:28:48;;;;;;;31.60;21.42;;;14.20;99.90;;;;;;5133082;27;20023;-71
2023/04/29 09:31:14;;;;;;;34.70;23.70;;;14.20;99.90;;;;;;5131565;27;20043;-70
2023/04/29 09:33:54;;;;;;;34.30;22.40;;;14.20;99.90;;;;;;5129414;27;20468;-69
2023/04/29 09:36:53;;;;;;;38.38;23.52;;;14.30;99.90;;;;;;5131191;27;20498;-68
2023/04/29 09:39:23;;;;;;;35.33;22.40;;;14.40;99.90;;;;;;5123831;27;20023;-68
2023/04/29 09:41:51;;;;;;;32.67;20.85;;;14.50;99.90;;;;;;5135236;27;20076;-69
2023/04/29 09:44:28;;;;;;;33.80;21.42;;;14.40;99.90;;;;;;5133031;27;20476;-69
2023/04/29 09:47:02;;;;;;;31.17;21.88;;;14.50;99.90;;;;;;5134488;27;20379;-69
2023/04/29 09:49:37;;;;;;;33.63;20.77;;;14.60;99.90;;;;;;5135414;27;20114;-69
2023/04/29 09:52:05;;;;;;;33.17;22.40;;;14.60;99.90;;;;;;5133540;27;20065;-69
2023/04/29 09:54:33;;;;;;;33.22;21.48;;;14.70;99.90;;;;;;5135109;27;20019;-69
2023/04/29 09:57:01;;;;;;;32.90;22.83;;;14.80;99.90;;;;;;5135125;27;20356;-69
2023/04/29 09:59:27;;;;;;;33.08;20.38;;;14.70;99.90;;;;;;5134141;27;20067;-71
2023/04/29 10:01:57;;;;;;;30.25;21.40;;;14.60;99.90;;;;;;5134657;27;20092;-70
2023/04/29 10:04:25;;;;;;;26.85;19.27;;;14.80;99.90;;;;;;5134383;27;20062;-71
2023/04/29 10:06:53;;;;;;;29.27;18.88;;;15.00;99.90;;;;;;5133062;27;20385;-71
2023/04/29 10:09:21;;;;;;;30.20;20.80;;;15.20;99.90;;;;;;5134657;27;20084;-72
2023/04/29 10:11:50;;;;;;;26.63;19.58;;;15.30;99.90;;;;;;5134494;27;20027;-72
2023/04/29 10:14:24;;;;;;;27.65;20.10;;;15.50;99.90;;;;;;5133049;27;20027;-70
2023/04/29 10:17:08;;;;;;;30.15;18.60;;;15.80;99.90;;;;;;5134606;27;20039;-70
2023/04/29 10:19:52;;;;;;;26.85;19.73;;;15.80;99.90;;;;;;5132040;27;20019;-70
2023/04/29 10:22:45;;;;;;;27.65;18.42;;;15.80;99.90;;;;;;5134212;27;20036;-70
2023/04/29 10:25:13;;;;;;;22.88;17.63;;;15.70;99.90;;;;;;5114154;28;20064;-70
2023/04/29 10:27:43;;;;;;;24.50;17.38;;;15.60;99.90;;;;;;5113694;28;20056;-70
2023/04/29 10:30:12;;;;;;;28.05;17.00;;;15.40;99.90;;;;;;5113987;28;20034;-71
2023/04/29 10:32:43;;;;;;;23.52;16.13;;;15.40;99.90;;;;;;5127959;27;20019;-71
2023/04/29 10:35:11;;;;;;;21.73;16.58;;;15.40;99.90;;;;;;5121242;27;20065;-70
2023/04/29 10:37:37;;;;;;;26.45;18.67;;;15.50;99.90;;;;;;5128076;27;20034;-71
2023/04/29 10:40:21;;;;;;;23.92;16.88;;;15.40;99.90;;;;;;5131969;27;20027;-71
2023/04/29 10:42:50;;;;;;;24.38;16.60;;;15.30;99.90;;;;;;5133848;27;20031;-70
2023/04/29 10:45:33;;;;;;;46.50;17.67;;;15.20;99.90;;;;;;5131387;27;20051;-70
2023/04/29 10:48:04;;;;;;;23.30;14.82;;;15.20;99.90;;;;;;5131945;27;20058;-71
2023/04/29 10:50:48;;;;;;;23.08;14.68;;;15.30;99.90;;;;;;5132320;27;20503;-72
2023/04/29 10:53:15;;;;;;;21.83;13.27;;;15.40;99.90;;;;;;5133642;27;20518;-71
2023/04/29 10:55:45;;;;;;;21.15;14.20;;;15.50;99.90;;;;;;5133825;27;20046;-71
2023/04/29 10:58:33;;;;;;;17.70;12.90;;;15.80;99.90;;;;;;5132060;27;20035;-70
2023/04/29 11:00:59;;;;;;;21.23;14.52;;;15.90;99.90;;;;;;5132509;27;20035;-70
2023/04/29 11:03:47;;;;;;;21.30;13.65;;;16.00;99.90;;;;;;5132225;27;20023;-70
2023/04/29 11:06:13;;;;;;;23.40;14.32;;;15.90;99.90;;;;;;5133576;27;20110;-70
2023/04/29 11:08:39;;;;;;;20.58;13.02;;;15.70;99.90;;;;;;5133156;27;20153;-70
2023/04/29 11:11:07;;;;;;;22.77;13.57;;;15.60;99.90;;;;;;5130357;27;20027;-70
2023/04/29 11:13:38;;;;;;;17.88;13.02;;;15.50;99.90;;;;;;5132788;27;20034;-70
2023/04/29 11:16:09;;;;;;;28.80;12.75;;;15.50;99.90;;;;;;5132461;27;20456;-70
2023/04/29 11:19:07;;;;;;;21.05;12.85;;;15.60;99.90;;;;;;5131051;27;20368;-70
2023/04/29 11:21:37;;;;;;;20.42;13.55;;;15.60;99.90;;;;;;5131304;27;20038;-70
2023/04/29 11:24:05;;;;;;;17.48;12.07;;;15.70;99.90;;;;;;5132768;27;20028;-70
2023/04/29 11:26:35;;;;;;;20.10;13.15;;;15.70;99.90;;;;;;5130331;27;20024;-70
2023/04/29 11:29:01;;;;;;;23.65;13.55;;;15.80;99.90;;;;;;5112531;28;20103;-70
2023/04/29 11:31:32;;;;;;;17.63;12.85;;;15.90;99.90;;;;;;5109524;28;20551;-70
2023/04/29 11:33:59;;;;;;;15.90;11.88;;;15.90;99.90;;;;;;5122321;27;20030;-69
2023/04/29 11:36:26;;;;;;;15.85;11.82;;;15.90;99.90;;;;;;5131891;27;20019;-70
2023/04/29 11:38:52;;;;;;;21.08;13.43;;;16.00;99.90;;;;;;5130576;28;20023;-70
2023/04/29 11:41:20;;;;;;;19.48;13.23;;;16.00;99.90;;;;;;5132764;27;20039;-70
2023/04/29 11:43:46;;;;;;;16.60;12.40;;;16.00;99.90;;;;;;5121404;27;20037;-70
2023/04/29 11:46:13;;;;;;;19.50;12.73;;;16.00;99.90;;;;;;5129563;28;20039;-69
2023/04/29 11:48:48;;;;;;;16.00;11.43;;;16.00;99.90;;;;;;5131515;27;20090;-71
2023/04/29 11:51:16;;;;;;;14.60;11.65;;;16.10;99.90;;;;;;5130357;27;20034;-69
2023/04/29 11:53:42;;;;;;;15.40;10.80;;;16.00;99.90;;;;;;5118457;27;20044;-69
2023/04/29 11:56:09;;;;;;;18.40;11.77;;;16.00;99.90;;;;;;5121802;28;20455;-69
2023/04/29 11:58:35;;;;;;;16.95;11.88;;;16.10;99.90;;;;;;5132724;27;20024;-70
2023/04/29 12:01:06;;;;;;;19.35;12.32;;;16.10;99.90;;;;;;5148700;27;20099;-71
2023/04/29 12:03:32;;;;;;;16.55;11.20;;;16.10;99.90;;;;;;5133298;27;20432;-71
2023/04/29 12:06:00;;;;;;;20.75;12.50;;;16.30;99.90;;;;;;5131591;27;20513;-71
2023/04/29 12:08:27;;;;;;;18.40;12.82;;;16.30;99.90;;;;;;5132340;27;20050;-70
2023/04/29 12:11:00;;;;;;;18.73;12.93;;;16.30;99.90;;;;;;5132538;27;20054;-71
2023/04/29 12:13:29;;;;;;;18.73;11.60;;;16.30;99.90;;;;;;5152039;27;20019;-71
2023/04/29 12:15:56;;;;;;;17.55;11.85;;;16.30;99.90;;;;;;5152373;27;20026;-70
2023/04/29 12:18:22;;;;;;;17.33;11.98;;;16.30;99.90;;;;;;5152862;27;20515;-71
2023/04/29 12:20:52;;;;;;;17.77;12.50;;;16.30;99.90;;;;;;5151997;27;20038;-71
2023/04/29 12:23:23;;;;;;;16.65;12.10;;;16.30;99.90;;;;;;5151319;27;20092;-70
2023/04/29 12:25:56;;;;;;;18.77;12.93;;;16.30;99.90;;;;;;5157263;27;20379;-70
2023/04/29 12:28:23;;;;;;;14.73;11.98;;;16.20;99.90;;;;;;5136302;27;20022;-71
2023/04/29 12:30:52;;;;;;;19.52;13.05;;;16.20;99.90;;;;;;5136590;27;20023;-71